Oak Grove, KY (42262)

12:45 AM CDT on May 30, 2015 (GMT -0500)
RAWS | | Change Station
CLOSE
Current Station
Personal Weather Station
Location: Fort Campbell, KY
Elevation: 544 ft
Nearby Weather Stations

Elev 544 ft 36.63 °N, 87.54 °W | Updated 30 minutes ago

Clear
Clear
71 °F
Feels Like 71 °F
N
3
Wind Variable Wind from WSW
Gusts 7.0 mph

Today
High -- | Low -- °F
--% Chance of Precip.
Yesterday
High -- | Low -- °F
Precip. -- in
5:33 AM 8:01 PM
Waxing Gibbous, 88% visible
Pressure 30.05 in
Visibility 10.0 miles
Clouds Clear
Dew Point 69 °F
Humidity 94%
Rainfall in
Snow Depth Not available.
UV 0 out of 12
Pollen .80 out of 12
Air Quality Not available.
Flu Activity No Activity
METAR KHOP 300458Z AUTO 17007KT 10SM CLR 23/20 A3006 RMK AO2 SLP176 T02300199

More Conditions Fewer Conditions

Pressure 30.05 in
Visibility 10.0 miles
Clouds Clear
Dew Point 69 °F
Humidity 94%
Rainfall in
Snow Depth Not available.
UV 0 out of 12
Pollen .80 out of 12
Air Quality Not available.
Flu Activity No Activity
METAR KHOP 300458Z AUTO 17007KT 10SM CLR 23/20 A3006 RMK AO2 SLP176 T02300199

More Conditions Fewer Conditions

10-Day Weather Forecast

Almanac

Astronomy

May. 30, 2015 Rise Set
Actual Time
Civil Twilight
Nautical Twilight
Astronomical Twilight
Moon
Length of Visible Light
Length of Day
Tomorrow will be .
, % of the Moon is Illuminated

Today's Extremes

State Highs State Lows

Community

WunderPhotos

Upload Photos

1,825,473 photos uploaded!

WunderBlogs® & News

Nearby

Air Quality

  Air Quality AQ Index Pollutant
Not available.

Snow Depth

Station Depth Elevation

Earthquake Activity

City Distance Mag. Time & Date
Minimum magnitude displayed is 2.5.

Coastal Water Temperatures

Place Temperature

Stations

Nearby Weather Stations

Station Location Temp. Windchill Dew Point Humidity Wind Precip. Elev Updated Type